createdAt,value
2018-09-06T00:01:22.409Z,14.47
2018-09-06T00:03:50.765Z,13.60
2018-09-06T00:06:19.173Z,12.87
2018-09-06T00:08:47.557Z,14.30
2018-09-06T00:11:15.989Z,13.53
2018-09-06T00:13:44.348Z,13.93
2018-09-06T00:16:12.725Z,13.57
2018-09-06T00:18:41.072Z,14.03
2018-09-06T00:21:09.484Z,14.17
2018-09-06T00:23:37.825Z,14.20
2018-09-06T00:26:06.569Z,13.83
2018-09-06T00:28:34.920Z,14.07
2018-09-06T00:31:03.289Z,13.90
2018-09-06T00:33:31.665Z,14.77
2018-09-06T00:36:00.005Z,14.57
2018-09-06T00:38:28.389Z,14.87
2018-09-06T00:40:56.782Z,15.03
2018-09-06T00:43:25.145Z,15.33
2018-09-06T00:45:53.483Z,15.90
2018-09-06T00:48:22.336Z,15.23
2018-09-06T00:50:50.680Z,13.97
2018-09-06T00:53:19.056Z,15.60
2018-09-06T00:55:47.440Z,15.13
2018-09-06T00:58:15.797Z,15.77
2018-09-06T01:00:44.133Z,15.30
2018-09-06T01:03:12.483Z,16.10
2018-09-06T01:05:40.805Z,16.57
2018-09-06T01:08:09.169Z,15.90
2018-09-06T01:10:37.524Z,16.43
2018-09-06T01:13:05.912Z,18.37
2018-09-06T01:15:34.243Z,17.20
2018-09-06T01:18:02.596Z,16.60
2018-09-06T01:20:30.932Z,17.30
2018-09-06T01:22:59.300Z,18.10
2018-09-06T01:25:31.792Z,17.37
2018-09-06T01:28:00.156Z,16.60
2018-09-06T01:30:28.516Z,16.70
2018-09-06T01:32:56.909Z,18.37
2018-09-06T01:35:25.530Z,17.00
2018-09-06T01:37:53.897Z,17.60
2018-09-06T01:40:22.308Z,18.20
2018-09-06T01:42:50.676Z,16.23
2018-09-06T01:45:19.009Z,15.40
2018-09-06T01:47:47.356Z,15.47
2018-09-06T01:50:15.848Z,16.00
2018-09-06T01:52:44.232Z,14.63
2018-09-06T01:55:12.565Z,15.07
2018-09-06T01:57:40.961Z,15.27
2018-09-06T02:00:09.352Z,16.13
2018-09-06T02:02:37.704Z,15.50
2018-09-06T02:05:06.072Z,18.13
2018-09-06T02:07:34.445Z,17.57
2018-09-06T02:10:02.833Z,18.90
2018-09-06T02:12:31.176Z,22.00
2018-09-06T02:14:59.700Z,22.63
2018-09-06T02:17:28.064Z,20.90
2018-09-06T02:19:56.440Z,20.57
2018-09-06T02:22:24.936Z,20.40
2018-09-06T02:24:53.269Z,22.07
2018-09-06T02:27:21.602Z,21.43
2018-09-06T02:29:50.100Z,21.97
2018-09-06T02:32:18.885Z,21.50
2018-09-06T02:34:47.249Z,20.00
2018-09-06T02:37:15.587Z,21.00
2018-09-06T02:39:43.947Z,20.00
2018-09-06T02:42:12.280Z,19.83
2018-09-06T02:44:40.633Z,21.33
2018-09-06T02:47:08.964Z,19.17
2018-09-06T02:49:42.516Z,17.63
2018-09-06T02:52:10.835Z,18.40
2018-09-06T02:54:39.200Z,18.90
2018-09-06T02:57:07.572Z,19.43
2018-09-06T02:59:35.964Z,18.63
2018-09-06T03:02:04.304Z,17.07
2018-09-06T03:04:32.657Z,19.00
2018-09-06T03:07:00.996Z,18.87
2018-09-06T03:09:29.379Z,19.10
2018-09-06T03:12:00.232Z,19.33
2018-09-06T03:14:28.650Z,19.70
2018-09-06T03:16:57.088Z,16.97
2018-09-06T03:19:25.613Z,17.80
2018-09-06T03:21:54.024Z,17.63
2018-09-06T03:24:22.383Z,17.40
2018-09-06T03:26:50.723Z,17.30
2018-09-06T03:29:19.077Z,17.83
2018-09-06T03:31:47.428Z,19.27
2018-09-06T03:34:16.020Z,19.30
2018-09-06T03:36:44.349Z,20.43
2018-09-06T03:39:12.700Z,19.27
2018-09-06T03:41:41.037Z,20.97
2018-09-06T03:44:09.441Z,21.57
2018-09-06T03:46:37.768Z,21.87
2018-09-06T03:49:06.187Z,19.87
2018-09-06T03:51:34.584Z,19.37
2018-09-06T03:54:02.960Z,18.53
2018-09-06T03:56:31.296Z,19.57
2018-09-06T03:58:59.667Z,18.63
2018-09-06T04:01:28.231Z,19.57
2018-09-06T04:03:56.610Z,19.63
2018-09-06T04:06:24.948Z,20.40
2018-09-06T04:08:53.320Z,22.07
2018-09-06T04:11:21.652Z,20.50
2018-09-06T04:13:50.005Z,19.20
2018-09-06T04:16:18.344Z,18.07
2018-09-06T04:18:46.708Z,19.97
2018-09-06T04:21:15.059Z,20.37
2018-09-06T04:23:43.441Z,22.57
2018-09-06T04:26:11.801Z,23.13
2018-09-06T04:28:40.197Z,24.87
2018-09-06T04:31:08.594Z,21.73
2018-09-06T04:33:36.972Z,28.90
2018-09-06T04:36:05.420Z,23.57
2018-09-06T04:38:34.233Z,20.33
2018-09-06T04:41:03.353Z,19.20
2018-09-06T04:43:32.224Z,21.77
2018-09-06T04:46:01.614Z,26.63
2018-09-06T04:48:30.469Z,30.53
2018-09-06T04:50:58.816Z,38.13
2018-09-06T04:53:27.167Z,49.77
2018-09-06T04:55:55.504Z,61.63
2018-09-06T04:58:23.889Z,66.87
2018-09-06T05:00:52.215Z,73.77
2018-09-06T05:03:20.548Z,65.10
2018-09-06T05:05:48.920Z,60.73
2018-09-06T05:08:17.304Z,68.50
2018-09-06T05:10:45.929Z,71.60
2018-09-06T05:13:14.263Z,69.77
2018-09-06T05:15:42.668Z,76.20
2018-09-06T05:18:11.041Z,80.27
2018-09-06T05:20:39.452Z,76.33
2018-09-06T05:23:07.796Z,84.43
2018-09-06T05:25:36.685Z,78.77
2018-09-06T05:28:05.090Z,72.87
2018-09-06T05:30:33.487Z,71.83
2018-09-06T05:33:01.812Z,76.07
2018-09-06T05:35:30.791Z,75.13
2018-09-06T05:37:59.136Z,77.90
2018-09-06T05:40:27.500Z,69.53
2018-09-06T05:42:55.851Z,74.23
2018-09-06T05:45:24.213Z,69.57
2018-09-06T05:47:57.664Z,68.07
2018-09-06T05:50:26.748Z,75.63
2018-09-06T05:52:55.093Z,61.10
2018-09-06T05:55:24.024Z,71.07
2018-09-06T05:57:52.765Z,68.73
2018-09-06T06:00:26.311Z,71.50
2018-09-06T06:02:55.836Z,63.57
2018-09-06T06:05:24.314Z,67.93
2018-09-06T06:08:04.020Z,62.13
2018-09-06T06:10:32.364Z,64.13
2018-09-06T06:13:00.692Z,59.10
2018-09-06T06:15:29.077Z,57.83
2018-09-06T06:17:57.421Z,57.50
2018-09-06T06:20:25.773Z,59.70
2018-09-06T06:22:54.133Z,62.43
2018-09-06T06:25:22.504Z,57.37
2018-09-06T06:27:50.837Z,57.80
2018-09-06T06:30:19.184Z,56.83
2018-09-06T06:32:47.552Z,56.77
2018-09-06T06:35:15.948Z,58.23
2018-09-06T06:37:44.276Z,57.43
2018-09-06T06:40:12.619Z,55.77
2018-09-06T06:42:40.949Z,59.77
2018-09-06T06:45:09.729Z,62.13
2018-09-06T06:47:38.106Z,61.07
2018-09-06T06:50:06.508Z,62.80
2018-09-06T06:52:34.971Z,66.70
2018-09-06T06:55:03.381Z,68.10
2018-09-06T06:57:31.716Z,66.37
2018-09-06T07:00:00.048Z,60.27
2018-09-06T07:02:28.420Z,59.23
2018-09-06T07:04:57.365Z,59.53
2018-09-06T07:07:25.736Z,58.83
2018-09-06T07:09:54.055Z,60.03
2018-09-06T07:12:22.429Z,59.27
2018-09-06T07:14:50.760Z,58.67
2018-09-06T07:17:19.113Z,60.67
2018-09-06T07:19:47.557Z,56.33
2018-09-06T07:22:15.923Z,56.73
2018-09-06T07:24:44.301Z,58.13
2018-09-06T07:27:12.661Z,56.47
2018-09-06T07:29:41.100Z,53.00
2018-09-06T07:32:09.452Z,56.07
2018-09-06T07:34:37.783Z,58.37
2018-09-06T07:37:06.156Z,54.40
2018-09-06T07:39:34.488Z,54.00
2018-09-06T07:42:02.840Z,54.27
2018-09-06T07:44:31.175Z,48.83
2018-09-06T07:46:59.568Z,49.10
2018-09-06T07:49:27.883Z,46.90
2018-09-06T07:51:56.230Z,46.07
2018-09-06T07:54:24.572Z,43.07
2018-09-06T07:56:52.932Z,41.77
2018-09-06T07:59:21.260Z,37.30
2018-09-06T08:01:49.716Z,37.47
2018-09-06T08:04:18.217Z,38.30
2018-09-06T08:06:46.624Z,33.70
2018-09-06T08:09:14.961Z,34.07
2018-09-06T08:11:43.319Z,31.53
2018-09-06T08:14:11.677Z,31.20
2018-09-06T08:16:40.115Z,31.37
2018-09-06T08:19:08.487Z,31.70
2018-09-06T08:21:36.833Z,30.63
2018-09-06T08:24:05.183Z,27.80
2018-09-06T08:26:33.544Z,27.10
2018-09-06T08:29:02.249Z,25.90
2018-09-06T08:31:30.688Z,26.50
2018-09-06T08:33:58.968Z,25.67
2018-09-06T08:36:27.352Z,27.57
2018-09-06T08:38:55.693Z,24.40
2018-09-06T08:41:24.048Z,24.13
2018-09-06T08:43:53.072Z,24.40
2018-09-06T08:46:21.488Z,25.13
2018-09-06T08:48:50.195Z,25.63
2018-09-06T08:51:18.580Z,24.97
2018-09-06T08:53:46.921Z,24.63
2018-09-06T08:56:15.256Z,25.27
2018-09-06T08:58:44.052Z,25.47
2018-09-06T09:01:18.200Z,26.77
2018-09-06T09:03:46.540Z,26.07
2018-09-06T09:06:14.938Z,26.67
2018-09-06T09:08:43.330Z,26.50
2018-09-06T09:11:11.712Z,26.27
2018-09-06T09:13:40.105Z,25.83
2018-09-06T09:16:08.563Z,26.80
2018-09-06T09:18:36.895Z,25.53
2018-09-06T09:21:05.240Z,24.17
2018-09-06T09:23:33.607Z,24.23
2018-09-06T09:26:01.992Z,25.73
2018-09-06T09:28:30.353Z,24.27
2018-09-06T09:30:59.232Z,22.63
2018-09-06T09:33:27.648Z,20.77
2018-09-06T09:35:56.087Z,20.33
2018-09-06T09:38:24.424Z,19.70
2018-09-06T09:40:52.784Z,18.63
2018-09-06T09:43:21.490Z,26.13
2018-09-06T09:45:49.816Z,26.37
2018-09-06T09:48:18.218Z,27.80
2018-09-06T09:53:14.112Z,25.85
2018-09-06T09:55:42.877Z,25.67
2018-09-06T09:58:11.245Z,19.97
2018-09-06T10:00:41.116Z,19.03
2018-09-06T10:03:15.001Z,20.13
2018-09-06T10:05:54.903Z,20.23
2018-09-06T10:08:28.452Z,20.87
2018-09-06T10:10:56.877Z,18.70
2018-09-06T10:13:25.646Z,19.03
2018-09-06T10:15:54.320Z,18.33
2018-09-06T10:18:22.752Z,17.83
2018-09-06T10:20:51.111Z,16.60
2018-09-06T10:23:19.524Z,18.47
2018-09-06T10:25:47.867Z,19.73
2018-09-06T10:28:16.269Z,17.27
2018-09-06T10:30:44.940Z,15.90
2018-09-06T10:33:13.288Z,17.10
2018-09-06T10:35:41.632Z,15.43
2018-09-06T10:38:10.020Z,16.30
2018-09-06T10:40:38.608Z,17.07
2018-09-06T10:43:07.288Z,15.70
2018-09-06T10:45:35.753Z,17.20
2018-09-06T10:48:04.144Z,17.00
2018-09-06T10:50:32.864Z,17.80
2018-09-06T10:53:01.256Z,19.10
2018-09-06T10:55:29.628Z,20.03
2018-09-06T10:57:58.131Z,18.60
2018-09-06T11:00:28.124Z,17.83
2018-09-06T11:02:56.989Z,18.73
2018-09-06T11:05:25.397Z,18.80
2018-09-06T11:07:54.269Z,17.93
2018-09-06T11:10:22.880Z,19.90
2018-09-06T11:12:51.593Z,19.47
2018-09-06T11:15:20.226Z,20.13
2018-09-06T11:17:48.579Z,17.17
2018-09-06T11:20:16.941Z,17.93
2018-09-06T11:22:45.344Z,19.17
2018-09-06T11:25:13.660Z,16.90
2018-09-06T11:27:42.386Z,18.20
2018-09-06T11:30:10.748Z,16.60
2018-09-06T11:32:39.108Z,17.03
2018-09-06T11:35:07.537Z,16.27
2018-09-06T11:37:35.900Z,15.43
2018-09-06T11:40:04.403Z,15.90
2018-09-06T11:42:32.752Z,15.40
2018-09-06T11:45:01.136Z,16.30
2018-09-06T11:47:29.764Z,15.30
2018-09-06T11:49:57.985Z,15.07
2018-09-06T11:52:26.376Z,16.23
2018-09-06T11:54:54.730Z,17.93
2018-09-06T11:57:23.121Z,19.07
2018-09-06T11:59:51.513Z,17.40
2018-09-06T12:02:19.853Z,15.63
2018-09-06T12:04:48.352Z,14.40
2018-09-06T12:07:16.712Z,13.80
2018-09-06T12:09:45.109Z,14.17
2018-09-06T12:12:13.468Z,14.07
2018-09-06T12:14:41.840Z,15.80
2018-09-06T12:17:10.400Z,14.77
2018-09-06T12:19:38.791Z,15.90
2018-09-06T12:22:07.209Z,15.07
2018-09-06T12:24:35.569Z,17.53
2018-09-06T12:27:05.034Z,15.97
2018-09-06T12:29:33.412Z,15.67
2018-09-06T12:32:01.799Z,14.80
2018-09-06T12:34:30.171Z,14.30
2018-09-06T12:36:58.549Z,14.80
2018-09-06T12:39:26.944Z,13.73
2018-09-06T12:41:55.353Z,14.37
2018-09-06T12:44:23.725Z,15.90
2018-09-06T12:46:52.075Z,15.83
2018-09-06T12:49:20.476Z,14.40
2018-09-06T12:51:48.827Z,16.37
2018-09-06T12:54:17.200Z,15.40
2018-09-06T12:56:45.864Z,15.73
2018-09-06T12:59:14.255Z,14.57
2018-09-06T13:01:42.617Z,14.70
2018-09-06T13:04:10.968Z,15.77
2018-09-06T13:06:39.381Z,13.70
2018-09-06T13:09:08.232Z,13.67
2018-09-06T13:11:37.196Z,14.13
2018-09-06T13:14:05.580Z,15.30
2018-09-06T13:16:33.995Z,16.00
2018-09-06T13:19:02.620Z,14.50
2018-09-06T13:21:30.985Z,17.33
2018-09-06T13:23:59.324Z,15.20
2018-09-06T13:26:27.656Z,14.33
2018-09-06T13:28:55.996Z,14.90
2018-09-06T13:31:24.461Z,15.50
2018-09-06T13:33:52.816Z,15.20
2018-09-06T13:36:21.170Z,14.97
2018-09-06T13:38:49.492Z,14.67
2018-09-06T13:41:17.856Z,14.87
2018-09-06T13:43:46.190Z,14.53
2018-09-06T13:46:14.572Z,14.47
2018-09-06T13:48:42.897Z,14.33
2018-09-06T13:51:11.257Z,13.83
2018-09-06T13:53:39.591Z,12.87
2018-09-06T13:56:08.136Z,12.97
2018-09-06T13:58:36.463Z,12.37
2018-09-06T14:01:04.849Z,14.07
2018-09-06T14:03:33.183Z,12.60
2018-09-06T14:06:01.558Z,11.93
2018-09-06T14:08:29.888Z,11.30
2018-09-06T14:10:58.252Z,12.30
2018-09-06T14:13:26.616Z,11.53
2018-09-06T14:15:54.960Z,11.80
2018-09-06T14:18:23.328Z,11.20
2018-09-06T14:20:51.720Z,12.60
2018-09-06T14:23:20.048Z,11.77
2018-09-06T14:25:48.409Z,11.17
2018-09-06T14:28:16.772Z,10.93
2018-09-06T14:30:45.120Z,11.97
2018-09-06T14:33:13.456Z,12.20
2018-09-06T14:35:41.844Z,11.63
2018-09-06T14:38:11.011Z,12.37
2018-09-06T14:40:39.331Z,12.87
2018-09-06T14:43:07.668Z,12.57
2018-09-06T14:45:36.016Z,12.20
2018-09-06T14:48:04.979Z,12.30
2018-09-06T14:50:33.325Z,11.57
2018-09-06T14:53:01.773Z,13.07
2018-09-06T14:55:30.133Z,11.40
2018-09-06T14:57:58.480Z,11.37
2018-09-06T15:00:26.832Z,11.50
2018-09-06T15:02:56.319Z,11.50
2018-09-06T15:05:24.671Z,10.80
2018-09-06T15:07:53.190Z,11.20
2018-09-06T15:10:21.553Z,12.03
2018-09-06T15:12:49.917Z,10.43
2018-09-06T15:15:18.340Z,11.20
2018-09-06T15:17:46.672Z,11.10
2018-09-06T15:20:15.033Z,12.40
2018-09-06T15:22:43.365Z,11.90
2018-09-06T15:25:12.176Z,11.90
2018-09-06T15:27:40.550Z,11.13
2018-09-06T15:30:08.941Z,11.27
2018-09-06T15:32:37.280Z,12.17
2018-09-06T15:35:05.712Z,11.93
2018-09-06T15:37:34.060Z,13.00
2018-09-06T15:40:02.407Z,13.07
2018-09-06T15:42:30.768Z,13.67
2018-09-06T15:44:59.125Z,14.53
2018-09-06T15:47:28.063Z,13.20
2018-09-06T15:49:56.462Z,12.00
2018-09-06T15:52:24.761Z,14.10
2018-09-06T15:54:53.105Z,25.40
2018-09-06T15:57:21.468Z,105.07
2018-09-06T15:59:49.804Z,21.40
2018-09-06T16:02:28.092Z,18.23
2018-09-06T16:05:00.099Z,19.70
2018-09-06T16:07:31.831Z,21.60
2018-09-06T16:10:03.313Z,21.73
2018-09-06T16:12:33.355Z,23.50
2018-09-06T16:15:04.022Z,24.53
2018-09-06T16:17:37.552Z,35.60
2018-09-06T16:20:10.133Z,35.20
2018-09-06T16:22:40.765Z,38.90
2018-09-06T16:25:16.016Z,38.03
2018-09-06T16:27:51.406Z,38.00
2018-09-06T16:30:26.156Z,41.23
2018-09-06T16:32:56.697Z,43.90
2018-09-06T16:35:27.826Z,46.83
2018-09-06T16:38:00.500Z,47.60
2018-09-06T16:40:33.410Z,49.33
2018-09-06T16:43:04.452Z,47.70
2018-09-06T16:45:34.982Z,45.07
2018-09-06T16:48:08.171Z,39.23
2018-09-06T16:50:38.592Z,30.17
2018-09-06T16:53:11.104Z,26.27
2018-09-06T16:55:40.900Z,24.20
2018-09-06T16:58:11.191Z,23.40
2018-09-06T17:00:45.646Z,27.80
2018-09-06T17:03:19.201Z,27.93
2018-09-06T17:05:49.949Z,32.87
2018-09-06T17:08:22.113Z,29.83
2018-09-06T17:10:53.176Z,32.93
2018-09-06T17:13:24.992Z,38.37
2018-09-06T17:15:55.784Z,34.43
2018-09-06T17:18:27.176Z,32.87
2018-09-06T17:21:01.168Z,34.93
2018-09-06T17:23:31.410Z,36.83
2018-09-06T17:26:05.569Z,35.93
2018-09-06T17:28:38.883Z,35.20
2018-09-06T17:31:11.176Z,36.30
2018-09-06T17:40:49.118Z,35.03
2018-09-06T17:43:22.432Z,33.30
2018-09-06T17:45:52.175Z,35.20
2018-09-06T17:48:22.829Z,31.53
2018-09-06T17:50:54.802Z,31.60
2018-09-06T17:53:26.497Z,30.70
2018-09-06T17:55:56.870Z,33.50
2018-09-06T17:58:29.753Z,34.23
2018-09-06T18:04:19.172Z,31.93
2018-09-06T18:06:49.479Z,33.47
2018-09-06T18:09:21.655Z,33.83
2018-09-06T18:11:55.365Z,35.63
2018-09-06T18:14:32.597Z,31.77
2018-09-06T18:17:05.673Z,79.60
2018-09-06T18:19:39.386Z,31.10
2018-09-06T18:22:13.487Z,32.20
2018-09-06T18:24:49.660Z,29.80
2018-09-06T18:27:19.609Z,26.23
2018-09-06T18:29:50.764Z,29.73
2018-09-06T18:32:25.840Z,32.47
2018-09-06T18:35:00.987Z,33.47
2018-09-06T18:37:30.723Z,35.33
2018-09-06T18:40:03.917Z,36.67
2018-09-06T18:42:37.312Z,35.33
2018-09-06T18:45:08.083Z,37.60
2018-09-06T18:47:42.250Z,36.63
2018-09-06T18:50:11.868Z,34.70
2018-09-06T18:52:43.651Z,37.37
2018-09-06T18:55:13.591Z,36.33
2018-09-06T18:57:46.831Z,36.83
2018-09-06T19:00:23.362Z,38.00
2018-09-06T19:02:55.243Z,38.27
2018-09-06T19:05:25.362Z,39.23
2018-09-06T19:07:55.792Z,40.33
2018-09-06T19:10:25.590Z,43.07
2018-09-06T19:12:56.598Z,39.07
2018-09-06T19:15:27.267Z,40.20
2018-09-06T19:17:57.028Z,35.13
2018-09-06T19:20:28.611Z,35.43
2018-09-06T19:23:00.260Z,32.77
2018-09-06T19:25:31.904Z,36.13
2018-09-06T19:28:05.508Z,36.70
2018-09-06T19:30:35.211Z,35.53
2018-09-06T19:33:06.291Z,35.60
2018-09-06T19:35:35.907Z,33.47
2018-09-06T19:38:08.179Z,30.43
2018-09-06T19:40:41.638Z,34.70
2018-09-06T19:43:12.619Z,32.50
2018-09-06T19:45:46.626Z,33.37
2018-09-06T19:48:20.137Z,33.83
2018-09-06T19:50:50.664Z,34.00
2018-09-06T19:53:21.044Z,32.83
2018-09-06T19:55:51.171Z,33.70
2018-09-06T19:58:21.845Z,35.17
2018-09-06T20:00:54.659Z,34.10
2018-09-06T20:03:31.742Z,34.07
2018-09-06T20:06:05.481Z,34.13
2018-09-06T20:08:37.648Z,33.30
2018-09-06T20:11:12.280Z,34.47
2018-09-06T20:13:43.661Z,34.27
2018-09-06T20:16:14.735Z,33.73
2018-09-06T20:18:45.327Z,34.93
2018-09-06T20:21:22.812Z,35.77
2018-09-06T20:23:58.006Z,138.73
2018-09-06T20:26:28.100Z,33.73
2018-09-06T20:28:56.452Z,35.07
2018-09-06T20:31:24.836Z,32.53
2018-09-06T20:33:53.837Z,31.43
2018-09-06T20:36:22.439Z,31.50
2018-09-06T20:38:50.932Z,31.57
2018-09-06T20:41:19.267Z,30.40
2018-09-06T20:43:47.636Z,30.00
2018-09-06T20:46:15.980Z,30.60
2018-09-06T20:48:44.335Z,30.23
2018-09-06T20:51:12.668Z,30.30
2018-09-06T20:53:41.061Z,29.40
2018-09-06T20:56:09.392Z,30.33
2018-09-06T20:58:37.758Z,31.10
2018-09-06T21:01:06.145Z,33.60
2018-09-06T21:03:34.488Z,31.17
2018-09-06T21:06:03.079Z,29.37
2018-09-06T21:08:31.895Z,28.60
2018-09-06T21:11:00.270Z,29.53
2018-09-06T21:13:28.624Z,30.43
2018-09-06T21:15:57.008Z,30.57
2018-09-06T21:18:25.367Z,29.77
2018-09-06T21:20:53.712Z,29.37
2018-09-06T21:23:22.060Z,29.27
2018-09-06T21:25:50.655Z,29.80
2018-09-06T21:28:18.981Z,31.13
2018-09-06T21:30:47.409Z,29.73
2018-09-06T21:33:15.772Z,31.53
2018-09-06T21:35:44.144Z,31.33
2018-09-06T21:38:12.472Z,30.90
2018-09-06T21:40:40.836Z,30.60
2018-09-06T21:43:09.168Z,29.10
2018-09-06T21:45:37.545Z,29.23
2018-09-06T21:48:05.892Z,29.17
2018-09-06T21:50:34.248Z,30.50
2018-09-06T21:53:02.567Z,29.33
2018-09-06T21:55:30.943Z,29.93
2018-09-06T21:57:59.772Z,30.57
2018-09-06T22:00:28.192Z,29.20
2018-09-06T22:03:01.744Z,30.00
2018-09-06T22:05:30.089Z,29.93
2018-09-06T22:07:58.428Z,30.70
2018-09-06T22:10:26.781Z,29.63
2018-09-06T22:12:55.121Z,29.87
2018-09-06T22:15:23.525Z,28.50
2018-09-06T22:17:51.868Z,28.87
2018-09-06T22:20:20.233Z,29.50
2018-09-06T22:22:48.572Z,28.70
2018-09-06T22:25:16.939Z,28.37
2018-09-06T22:27:45.284Z,28.63
2018-09-06T22:30:13.784Z,30.97
2018-09-06T22:32:42.168Z,32.33
2018-09-06T22:35:10.534Z,31.40
2018-09-06T22:37:38.880Z,32.17
2018-09-06T22:40:07.252Z,31.77
2018-09-06T22:42:35.724Z,33.10
2018-09-06T22:45:04.223Z,34.00
2018-09-06T22:47:32.607Z,35.13
2018-09-06T22:50:00.959Z,34.17
2018-09-06T22:52:29.285Z,34.87
2018-09-06T22:54:57.641Z,34.43
2018-09-06T22:57:25.975Z,35.87
2018-09-06T22:59:54.536Z,33.47
2018-09-06T23:02:23.593Z,32.73
2018-09-06T23:04:51.951Z,33.43
2018-09-06T23:07:20.331Z,38.13
2018-09-06T23:09:48.744Z,38.53
2018-09-06T23:12:17.067Z,34.57
2018-09-06T23:14:45.424Z,36.83
2018-09-06T23:17:13.764Z,42.87
2018-09-06T23:19:42.152Z,45.17
2018-09-06T23:22:10.496Z,44.77
2018-09-06T23:24:38.848Z,45.77
2018-09-06T23:27:07.619Z,48.30
2018-09-06T23:29:35.981Z,49.50
2018-09-06T23:32:04.332Z,48.33
2018-09-06T23:34:35.794Z,46.77
2018-09-06T23:37:05.392Z,41.63
2018-09-06T23:39:33.975Z,42.47
2018-09-06T23:42:02.560Z,40.37
2018-09-06T23:44:30.933Z,40.13
2018-09-06T23:46:59.425Z,36.67
2018-09-06T23:49:28.008Z,37.03
2018-09-06T23:51:56.356Z,35.77
2018-09-06T23:54:24.720Z,36.97
2018-09-06T23:56:53.118Z,34.40
2018-09-06T23:59:21.432Z,33.23
